x

Central Dixon Entrance Buoy (46145) Wave Buoy

1:00am - Fri 24th Nov 2017 All times are PST. -8 hours from GMT.

  • Sig Wave height 5.2ft
  • Peak Period 9s
  • Wind
    22mph, 27mph gusts
  • Sea Temp 46°f
  • Air Temp 44°f
  • Sea Pressure 992.2mb
  • Central Dixon Entrance Buoy
  • Central Dixon Entrance Buoy

More Historic Weather Station data

Upgrade to MSW Pro to gain access to the past 30 days of data for over 8000 Wavebouys and Weather Stations around the globe.

Join

Comparision Forecast

View Surf forecast
   
Fri 11/24 1:00am 5ft 9s 22 27 mph 992.2mb 46f 44f
12:00am 6ft 10s 27 34 mph 992.5mb 46f 43f
Thu 11/23 11:00pm 6ft 10s 27 34 mph 992.3mb 46f 44f
10:00pm 6.5ft 10s 31 38 mph 991.9mb 46f 43f
9:00pm 6ft 10s 29 34 mph 992.8mb 46f 43f
8:00pm 5.5ft 11s 25 31 mph 993.6mb 46f 42f
7:00pm 4.5ft 10s 22 27 mph 994.7mb 46f 42f
6:00pm 3.5ft 7s 20 22 mph 995mb 46f 42f
5:00pm 3ft 12s 18 22 mph 995.6mb 46f 42f
4:00pm 3ft 7s 16 18 mph 996.1mb 46f 41f
3:00pm 3ft 6s 16 20 mph 996.7mb 46f 42f
2:00pm 3ft 7s 20 25 mph 997mb 46f 42f
1:00pm 3.5ft 6s 16 18 mph 997.5mb 46f 42f
12:00pm 4ft 6s 16 20 mph 998mb 46f 42f
11:00am 4ft 6s 13 16 mph 998.2mb 46f 43f
10:00am 4ft 7s 16 18 mph 998.1mb 46f 43f
9:00am 3.5ft 7s 16 20 mph 997.7mb 46f 43f
8:00am 4ft 6s 13 16 mph 997.6mb 46f 44f
7:00am 3.5ft 7s 13 16 mph 997.4mb 46f 44f
6:00am 3.5ft 5s 13 20 mph 997.1mb 46f 43f
5:00am 3.5ft 4s 16 18 mph 996.5mb 46f 44f
4:00am 3.5ft 11s 20 27 mph 996.1mb 46f 44f
3:00am 2.5ft 6s 20 27 mph 995.6mb 46f 44f
2:00am 2.5ft 6s 16 18 mph 994.9mb 46f 45f
1:00am 2.5ft 11s 13 16 mph 994.9mb 46f 44f
12:00am 2.5ft 11s 13 18 mph 994.8mb 46f 44f
Wed 11/22 11:00pm 2.5ft 11s 16 18 mph 994.4mb 46f 43f
10:00pm 2.5ft 11s 11 16 mph 993.9mb 46f 46f
9:00pm 2.5ft 11s 11 16 mph 993.7mb 46f 46f
8:00pm 2.5ft 12s 7 7 mph 993.6mb 46f 46f
7:00pm 2.5ft 11s 4 7 mph 993.6mb 46f 46f
6:00pm 2.5ft 5s 9 9 mph 993.2mb 46f 46f
5:00pm 3ft 5s 7 9 mph 992.9mb 46f 46f
4:00pm 3.5ft 5s 4 7 mph 993.1mb 46f 46f
3:00pm 3.5ft 6s 7 9 mph 993.5mb 46f 46f
2:00pm 3.5ft 6s 2 4 mph 993.9mb 46f 47f
1:00pm 3.5ft 11s 2 4 mph 994.9mb 46f 46f
12:00pm 3.5ft 12s 2 4 mph 995.3mb 46f 46f
11:00am 3.5ft 5s 2 2 mph 995.1mb 46f 46f
10:00am 4ft 12s 9 13 mph 994.5mb 46f 46f
9:00am 4.5ft 12s 9 11 mph 994.5mb 46f 46f
8:00am 5ft 6s 7 9 mph 994.2mb 46f 46f
7:00am 5.5ft 5s 13 18 mph 993.9mb 46f 46f
6:00am 6ft 6s 13 18 mph 994.2mb 46f 47f
5:00am 7ft 7s 18 20 mph 994.1mb 46f 47f
4:00am 8ft 7s 22 27 mph 995mb 46f 45f
3:00am 7.5ft 6s 27 34 mph 995mb 46f 43f
2:00am 7ft 7s 27 31 mph 996.3mb 46f 43f
Tue 11/21 6:00pm 6.5ft 15s 25 29 mph 999.2mb 46f 44f
5:00pm 6ft 13s 22 27 mph 1000.3mb 46f 44f
4:00pm 6.5ft 13s 25 29 mph 1000.9mb 46f 44f
3:00pm 6.5ft 14s 22 27 mph 1001.9mb 46f 45f
2:00pm 7.5ft 13s 20 27 mph 1003.4mb 46f 44f
1:00pm 7ft 14s 18 22 mph 1004.9mb 46f 44f
12:00pm 7ft 13s 22 27 mph 1006.1mb 46f 44f
11:00am 7ft 12s 20 27 mph 1007.5mb 46f 44f
10:00am 8ft 13s 20 25 mph 1008.6mb 46f 46f
9:00am 8.5ft 14s 22 27 mph 1009.2mb 46f 46f
8:00am 9ft 13s 25 31 mph 1009.6mb 46f 46f
7:00am 9.5ft 13s 25 31 mph 1009.5mb 46f 46f
6:00am 9ft 13s 27 31 mph 1010mb 46f 45f
5:00am 9ft 12s 25 34 mph 1010mb 46f 45f
4:00am 9ft 13s 25 34 mph 1009.9mb 46f 46f
3:00am 10ft 12s 27 34 mph 1009.5mb 46f 46f
2:00am 9ft 13s 25 31 mph 1009.3mb 46f 46f
1:00am 8ft 13s 25 31 mph 1009mb 46f 46f
12:00am 7ft 7s 27 34 mph 1008.4mb 46f 46f
Mon 11/20 11:00pm 7ft 7s 25 31 mph 1008mb 46f 46f
10:00pm 7ft 6s 27 34 mph 1007.5mb 46f 46f
9:00pm 6.5ft 6s 27 36 mph 1007mb 46f 46f
8:00pm 6ft 6s 27 34 mph 1006.6mb 46f 46f
7:00pm 6ft 6s 27 34 mph 1005.6mb 46f 46f
6:00pm 6ft 6s 27 31 mph 1005.1mb 46f 46f
5:00pm 6ft 5s 29 36 mph 1004.4mb 46f 45f
4:00pm 6ft 6s 27 34 mph 1003.7mb 46f 45f
3:00pm  -   -  27
mph
- - -
2:00pm 5.5ft 6s 27 31 mph 1003.1mb 46f 45f
1:00pm 4.5ft 6s 27 34 mph 1002.7mb 46f 45f
12:00pm 4.5ft 6s 27 34 mph 1002.6mb 46f 44f
11:00am 4.5ft 5s 27 31 mph 1002.2mb 46f 44f